createdAt,value
2022-10-09T00:01:15.012Z,9.42
2022-10-09T00:06:21.703Z,9.46
2022-10-09T00:11:27.476Z,9.48
2022-10-09T00:16:30.735Z,9.46
2022-10-09T00:21:34.657Z,9.36
2022-10-09T00:26:37.515Z,9.23
2022-10-09T00:31:40.320Z,9.08
2022-10-09T00:36:43.323Z,8.92
2022-10-09T00:41:46.126Z,8.77
2022-10-09T00:46:51.592Z,8.63
2022-10-09T00:51:56.952Z,8.56
2022-10-09T00:57:00.452Z,8.62
2022-10-09T01:02:03.418Z,8.69
2022-10-09T01:07:35.570Z,8.73
2022-10-09T01:12:54.724Z,8.79
2022-10-09T01:18:04.822Z,8.86
2022-10-09T01:23:53.092Z,8.91
2022-10-09T01:29:00.035Z,8.88
2022-10-09T01:34:04.337Z,8.81
2022-10-09T01:39:09.587Z,8.68
2022-10-09T01:44:32.661Z,8.54
2022-10-09T01:49:50.009Z,8.40
2022-10-09T01:55:10.930Z,8.30
2022-10-09T02:00:14.942Z,8.20
2022-10-09T02:05:24.930Z,8.11
2022-10-09T02:10:28.046Z,8.01
2022-10-09T02:15:45.957Z,7.92
2022-10-09T02:20:52.182Z,7.90
2022-10-09T02:25:55.395Z,7.93
2022-10-09T02:31:11.387Z,7.99
2022-10-09T02:36:14.916Z,8.02
2022-10-09T02:41:17.821Z,8.01
2022-10-09T02:46:21.443Z,7.95
2022-10-09T02:51:25.328Z,7.85
2022-10-09T02:56:29.097Z,7.75
2022-10-09T03:01:32.073Z,7.67
2022-10-09T03:06:35.956Z,7.64
2022-10-09T03:11:39.035Z,7.60
2022-10-09T03:16:41.938Z,7.55
2022-10-09T03:21:44.848Z,7.51
2022-10-09T03:26:47.644Z,7.50
2022-10-09T03:31:53.194Z,7.47
2022-10-09T03:36:56.529Z,7.40
2022-10-09T03:41:59.430Z,7.33
2022-10-09T03:47:02.286Z,7.24
2022-10-09T03:52:05.236Z,7.21
2022-10-09T03:57:08.140Z,7.20
2022-10-09T04:02:10.981Z,7.17
2022-10-09T04:07:13.948Z,7.08
2022-10-09T04:12:16.750Z,6.99
2022-10-09T04:17:19.551Z,6.93
2022-10-09T04:22:22.352Z,6.85
2022-10-09T04:27:25.257Z,6.77
2022-10-09T04:32:28.060Z,6.72
2022-10-09T04:37:30.963Z,6.68
2022-10-09T04:42:33.763Z,6.66
2022-10-09T04:47:36.876Z,6.62
2022-10-09T04:52:39.681Z,6.59
2022-10-09T04:57:42.580Z,6.58
2022-10-09T05:02:45.535Z,6.61
2022-10-09T05:07:48.650Z,6.70
2022-10-09T05:12:51.603Z,6.87
2022-10-09T05:17:54.720Z,7.09
2022-10-09T05:22:57.612Z,7.31
2022-10-09T05:28:00.516Z,7.49
2022-10-09T05:33:03.420Z,7.66
2022-10-09T05:38:06.429Z,7.88
2022-10-09T05:43:09.329Z,8.13
2022-10-09T05:48:12.234Z,9.02
2022-10-09T05:53:15.181Z,10.27
2022-10-09T05:58:18.039Z,10.64
2022-10-09T06:03:20.945Z,10.43
2022-10-09T06:08:23.950Z,10.14
2022-10-09T06:13:26.857Z,9.92
2022-10-09T06:18:30.483Z,9.82
2022-10-09T06:23:34.030Z,9.78
2022-10-09T06:28:36.931Z,9.83
2022-10-09T06:33:41.849Z,9.92
2022-10-09T06:38:45.180Z,10.03
2022-10-09T06:44:16.065Z,10.22
2022-10-09T06:49:19.643Z,10.46
2022-10-09T06:54:22.754Z,10.66
2022-10-09T06:59:25.554Z,10.75
2022-10-09T07:04:28.466Z,10.75
2022-10-09T07:09:31.568Z,10.74
2022-10-09T07:14:34.475Z,10.82
2022-10-09T07:19:37.477Z,11.04
2022-10-09T07:24:40.295Z,11.74
2022-10-09T07:29:43.387Z,12.47
2022-10-09T07:34:46.189Z,13.09
2022-10-09T07:39:48.992Z,13.32
2022-10-09T07:44:51.802Z,13.67
2022-10-09T07:49:54.699Z,13.82
2022-10-09T07:54:57.702Z,13.92
2022-10-09T08:00:00.606Z,14.05
2022-10-09T08:05:03.690Z,14.31
2022-10-09T08:10:07.224Z,14.22
2022-10-09T08:15:10.245Z,14.10
2022-10-09T08:20:13.144Z,13.97
2022-10-09T08:25:16.148Z,13.85
2022-10-09T08:30:19.305Z,13.76
2022-10-09T08:35:22.163Z,13.75
2022-10-09T08:40:36.231Z,13.65
2022-10-09T08:45:40.667Z,13.75
2022-10-09T08:50:51.686Z,13.86
2022-10-09T08:55:57.644Z,14.03
2022-10-09T09:01:12.783Z,14.10
2022-10-09T09:06:30.990Z,14.29
2022-10-09T09:12:00.520Z,14.29
2022-10-09T09:17:24.622Z,14.49
2022-10-09T09:22:28.116Z,14.45
2022-10-09T09:27:34.421Z,14.61
2022-10-09T09:32:51.119Z,14.82
2022-10-09T09:37:54.567Z,14.83
2022-10-09T09:43:04.834Z,14.76
2022-10-09T09:48:23.415Z,14.73
2022-10-09T09:53:32.157Z,14.60
2022-10-09T09:58:45.265Z,14.47
2022-10-09T10:03:54.350Z,14.48
2022-10-09T10:09:05.732Z,14.37
2022-10-09T10:14:13.777Z,14.07
2022-10-09T10:19:29.991Z,13.70
2022-10-09T10:24:41.834Z,13.33
2022-10-09T10:29:46.954Z,13.11
2022-10-09T10:34:54.306Z,13.35
2022-10-09T10:40:13.716Z,13.79
2022-10-09T10:45:23.424Z,13.89
2022-10-09T10:50:36.467Z,13.85
2022-10-09T10:55:59.270Z,14.35
2022-10-09T11:01:27.586Z,15.02
2022-10-09T11:06:44.731Z,15.41
2022-10-09T11:12:24.876Z,14.98
2022-10-09T11:17:54.638Z,14.59
2022-10-09T11:23:12.949Z,14.20
2022-10-09T11:28:23.086Z,14.33
2022-10-09T11:33:37.089Z,14.66
2022-10-09T11:38:46.122Z,14.97
2022-10-09T11:43:58.153Z,15.10
2022-10-09T11:49:19.901Z,15.30
2022-10-09T11:54:24.708Z,15.67
2022-10-09T11:59:36.665Z,15.76
2022-10-09T12:04:55.780Z,15.41
2022-10-09T12:10:07.466Z,14.97
2022-10-09T12:15:24.093Z,14.61
2022-10-09T12:20:28.363Z,14.33
2022-10-09T12:25:40.684Z,14.08
2022-10-09T12:30:48.869Z,13.94
2022-10-09T12:36:06.151Z,13.99
2022-10-09T12:41:23.353Z,14.29
2022-10-09T12:46:33.219Z,14.61
2022-10-09T12:51:38.990Z,14.92
2022-10-09T12:56:42.652Z,15.11
2022-10-09T13:01:53.871Z,15.29
2022-10-09T13:07:05.941Z,15.40
2022-10-09T13:12:23.787Z,15.50
2022-10-09T13:17:38.062Z,15.56
2022-10-09T13:22:41.025Z,15.44
2022-10-09T13:27:43.967Z,15.33
2022-10-09T13:32:50.070Z,15.28
2022-10-09T13:37:53.100Z,15.26
2022-10-09T13:43:01.493Z,15.13
2022-10-09T13:48:08.691Z,15.05
2022-10-09T13:53:12.044Z,14.98
2022-10-09T13:58:14.915Z,14.92
2022-10-09T14:03:18.321Z,14.91
2022-10-09T14:08:21.944Z,14.89
2022-10-09T14:13:24.754Z,14.77
2022-10-09T14:18:27.650Z,14.66
2022-10-09T14:23:30.454Z,14.61
2022-10-09T14:28:34.072Z,14.52
2022-10-09T14:33:49.266Z,14.36
2022-10-09T14:38:53.499Z,14.16
2022-10-09T14:43:59.581Z,13.97
2022-10-09T14:49:07.544Z,13.72
2022-10-09T14:54:12.352Z,13.47
2022-10-09T14:59:15.149Z,13.22
2022-10-09T15:04:18.020Z,12.97
2022-10-09T15:09:20.958Z,12.75
2022-10-09T15:14:23.972Z,12.56
2022-10-09T15:19:26.870Z,12.38
2022-10-09T15:24:30.388Z,12.20
2022-10-09T15:29:33.322Z,12.01
2022-10-09T15:34:40.626Z,11.83
2022-10-09T15:39:44.121Z,11.62
2022-10-09T15:44:47.019Z,11.40
2022-10-09T15:49:53.322Z,11.16
2022-10-09T15:54:56.515Z,10.92
2022-10-09T15:59:59.317Z,10.69
2022-10-09T16:05:02.322Z,10.44
2022-10-09T16:10:05.795Z,10.21
2022-10-09T16:15:09.390Z,9.99
2022-10-09T16:20:12.265Z,9.77
2022-10-09T16:25:15.271Z,9.56
2022-10-09T16:30:18.174Z,9.37
2022-10-09T16:35:22.601Z,9.19
2022-10-09T16:40:49.970Z,9.03
2022-10-09T16:45:48.394Z,8.86
2022-10-09T16:50:51.195Z,8.71
2022-10-09T16:55:54.095Z,8.55
2022-10-09T17:01:03.923Z,8.40
2022-10-09T17:06:13.938Z,8.24
2022-10-09T17:11:17.559Z,8.09
2022-10-09T17:16:22.383Z,7.95
2022-10-09T17:21:28.141Z,7.81
2022-10-09T17:26:35.087Z,7.68
2022-10-09T17:31:37.983Z,7.55
2022-10-09T17:36:42.424Z,7.44
2022-10-09T17:41:47.218Z,7.32
2022-10-09T17:46:50.400Z,7.21
2022-10-09T17:51:54.721Z,7.12
2022-10-09T17:57:00.401Z,7.04
2022-10-09T18:02:03.680Z,6.93
2022-10-09T18:07:06.910Z,6.80
2022-10-09T18:12:10.023Z,6.64
2022-10-09T18:17:13.743Z,6.49
2022-10-09T18:22:16.848Z,6.39
2022-10-09T18:27:20.709Z,6.27
2022-10-09T18:32:23.470Z,6.18
2022-10-09T18:37:26.793Z,6.09
2022-10-09T18:42:29.796Z,5.97
2022-10-09T18:47:35.205Z,5.86
2022-10-09T18:52:40.007Z,5.75
2022-10-09T18:57:43.384Z,5.67
2022-10-09T19:02:46.343Z,5.58
2022-10-09T19:07:49.482Z,5.48
2022-10-09T19:12:54.492Z,5.34
2022-10-09T19:17:57.297Z,5.20
2022-10-09T19:23:00.198Z,5.07
2022-10-09T19:28:03.121Z,4.98
2022-10-09T19:33:06.109Z,4.88
2022-10-09T19:38:09.120Z,4.77
2022-10-09T19:43:13.375Z,4.66
2022-10-09T19:48:17.746Z,4.56
2022-10-09T19:53:20.696Z,4.46
2022-10-09T19:58:23.495Z,4.40
2022-10-09T20:03:26.319Z,4.33
2022-10-09T20:08:29.305Z,4.26
2022-10-09T20:13:37.792Z,4.20
2022-10-09T20:18:42.407Z,4.09
2022-10-09T20:23:45.490Z,4.02
2022-10-09T20:28:49.004Z,3.97
2022-10-09T20:33:53.142Z,3.92
2022-10-09T20:38:58.360Z,3.84
2022-10-09T20:44:02.265Z,3.71
2022-10-09T20:49:07.506Z,3.64
2022-10-09T20:54:16.360Z,3.65
2022-10-09T20:59:19.336Z,3.65
2022-10-09T21:04:22.243Z,3.60
2022-10-09T21:09:27.530Z,3.58
2022-10-09T21:14:33.987Z,3.52
2022-10-09T21:19:36.790Z,3.42
2022-10-09T21:24:39.702Z,3.34
2022-10-09T21:29:42.732Z,3.27
2022-10-09T21:34:46.013Z,3.22
2022-10-09T21:39:48.817Z,3.14
2022-10-09T21:44:51.721Z,3.06
2022-10-09T21:49:54.622Z,2.97
2022-10-09T21:54:57.528Z,2.90
2022-10-09T22:00:00.641Z,2.85
2022-10-09T22:05:04.161Z,2.85
2022-10-09T22:10:07.674Z,2.82
2022-10-09T22:15:10.924Z,2.75
2022-10-09T22:20:13.788Z,2.70
2022-10-09T22:25:17.107Z,2.65
2022-10-09T22:30:20.110Z,2.62
2022-10-09T22:35:23.468Z,2.61
2022-10-09T22:40:26.325Z,2.58
2022-10-09T22:45:29.130Z,2.55
2022-10-09T22:50:31.927Z,2.53
2022-10-09T22:55:34.936Z,2.50
2022-10-09T23:00:38.314Z,2.47
2022-10-09T23:05:41.150Z,2.46
2022-10-09T23:10:43.994Z,2.43
2022-10-09T23:15:47.061Z,2.44
2022-10-09T23:20:49.868Z,2.42
2022-10-09T23:25:52.771Z,2.41
2022-10-09T23:31:11.563Z,2.39
2022-10-09T23:36:17.316Z,2.38
2022-10-09T23:41:22.680Z,2.33
2022-10-09T23:46:33.063Z,2.23
2022-10-09T23:51:35.963Z,2.17
2022-10-09T23:56:38.867Z,2.11
